Pottersville, Vermont
Current Conditions -  °F | °C
As of 8:54 AM on Wednesday 28 Jan 2015 (Local Time) from KMVL Reporting Station
Overcast Overcast  
Wind Chill: -8°   Ceiling: 9000
Heat Index:   Visibility: 10mi
Dew Point: -2°   Wind: 12mph
Humidity: 67%   Direction: 10°N
Pressure: 30.05"   Gusts: NA
Location:  44.5359°N, 72.4842°W
Report Text: KMVL 281354Z AUTO 01010KT 10SM OVC090 M14/M19 A3005 RMK AO2 SLP196 T11391189 TSNO
Loading
Personal Weather Stations






























Interactive Weather Map New forecast layout! Learn more

10-Day Weather Forecast

Advertisements
Track Severe Weather on mobile